To NAV CANADA Home Page Login to a new session Search on AWWS site Disclaimer Vers la page française équivalente Tips FAQ What's new on the site To the Forecasts and Observations / NOTAM section To "File a Flight Plan" website Publications and other links Update of the User's profile FIC Telephone Numbers My Weather Data Folder Route Weather Data Regional Weather Data Local Weather Data To the Forecasts and Observations / NOTAM section
Request Generated 03/19/2019 at 23:19:01 UTC . Weather information available at that time is displayed.

METAR/TAF

SARNIA (CHRIS HADFIELD)/ON    (show WxCam)

METAR CYZR 192300Z AUTO 19010KT 9SM SCT060 06/M03 A3029 RMK SLP266=
METAR CYZR 192200Z AUTO 18006KT 140V210 9SM FEW060 07/M04 A3030 RMK SLP268=
METAR CYZR 192100Z AUTO 07003KT 010V080 9SM BKN060 06/M04 A3032 RMK SLP275=

TAF CYZR 191938Z 1920/2002 23005KT P6SM SCT050 TEMPO 1920/2002 BKN050
RMK FCST BASED ON AUTO OBS. NXT FCST WILL BE ISSUED AT 200745Z=
Your time UTC time
Weather data provided by Environment Canada and NAV CANADA